createdAt,value
2022-12-01T00:02:06.812Z,102419.66
2022-12-01T00:04:33.959Z,102432.53
2022-12-01T00:07:00.961Z,102425.50
2022-12-01T00:09:46.549Z,102427.47
2022-12-01T00:12:13.769Z,102422.59
2022-12-01T00:14:40.671Z,102426.22
2022-12-01T00:17:07.522Z,102426.56
2022-12-01T00:19:34.674Z,102432.94
2022-12-01T00:22:01.857Z,102428.72
2022-12-01T00:24:28.802Z,102430.03
2022-12-01T00:26:55.887Z,102426.91
2022-12-01T00:29:22.767Z,102420.88
2022-12-01T00:31:49.862Z,102426.91
2022-12-01T00:34:24.932Z,102430.84
2022-12-01T00:36:51.981Z,102429.22
2022-12-01T00:39:19.047Z,102426.47
2022-12-01T00:41:45.948Z,102435.38
2022-12-01T00:44:12.796Z,102437.34
2022-12-01T00:46:39.902Z,102425.75
2022-12-01T00:49:07.013Z,102430.97
2022-12-01T00:51:34.140Z,102430.16
2022-12-01T00:54:01.025Z,102429.06
2022-12-01T00:56:28.135Z,102421.69
2022-12-01T00:58:55.285Z,102434.91
2022-12-01T01:01:22.210Z,102428.00
2022-12-01T01:03:49.334Z,102429.00
2022-12-01T01:06:16.675Z,102424.41
2022-12-01T01:08:43.543Z,102422.34
2022-12-01T01:11:10.624Z,102428.66
2022-12-01T01:13:37.883Z,102438.63
2022-12-01T01:16:08.451Z,102432.78
2022-12-01T01:18:35.566Z,102447.16
2022-12-01T01:21:06.839Z,102443.72
2022-12-01T01:23:34.428Z,102448.59
2022-12-01T01:26:29.416Z,102449.75
2022-12-01T01:28:58.917Z,102449.75
2022-12-01T01:31:28.428Z,102448.13
2022-12-01T01:33:57.074Z,102455.78
2022-12-01T01:36:25.084Z,102454.16
2022-12-01T01:38:53.223Z,102458.38
2022-12-01T01:41:22.000Z,102455.78
2022-12-01T01:43:55.368Z,102459.81
2022-12-01T01:46:26.652Z,102453.00
2022-12-01T01:49:11.314Z,102456.41
2022-12-01T01:51:38.127Z,102461.34
2022-12-01T01:54:17.854Z,102458.84
2022-12-01T01:56:48.852Z,102456.25
2022-12-01T01:59:22.300Z,102454.75
2022-12-01T02:02:05.982Z,102453.78
2022-12-01T02:04:35.305Z,102450.19
2022-12-01T02:07:03.164Z,102465.41
2022-12-01T02:09:30.016Z,102455.97
2022-12-01T02:12:30.317Z,102459.19
2022-12-01T02:15:32.237Z,102452.53
2022-12-01T02:18:11.309Z,102457.91
2022-12-01T02:20:50.220Z,102457.28
2022-12-01T02:23:32.357Z,102453.34
2022-12-01T02:26:42.545Z,102466.25
2022-12-01T02:29:33.517Z,102450.50
2022-12-01T02:32:16.677Z,102457.97
2022-12-01T02:35:28.375Z,102459.72
2022-12-01T02:37:55.202Z,102457.28
2022-12-01T02:40:26.298Z,102458.28
2022-12-01T02:43:05.472Z,102448.47
2022-12-01T02:45:51.406Z,102457.28
2022-12-01T02:48:53.174Z,102453.50
2022-12-01T02:51:26.144Z,102454.31
2022-12-01T02:53:55.826Z,102463.59
2022-12-01T02:56:23.844Z,102453.69
2022-12-01T02:58:51.429Z,102444.88
2022-12-01T03:01:30.743Z,102456.13
2022-12-01T03:04:08.862Z,102454.31
2022-12-01T03:06:55.395Z,102458.22
2022-12-01T03:09:54.949Z,102460.19
2022-12-01T03:12:43.619Z,102456.78
2022-12-01T03:15:35.814Z,102459.00
2022-12-01T03:18:31.002Z,102464.41
2022-12-01T03:21:21.235Z,102459.81
2022-12-01T03:23:55.001Z,102449.56
2022-12-01T03:26:25.055Z,102449.69
2022-12-01T03:29:02.097Z,102447.44
2022-12-01T03:31:40.702Z,102452.47
2022-12-01T03:34:28.510Z,102457.88
2022-12-01T03:37:06.994Z,102454.59
2022-12-01T03:39:38.616Z,102455.06
2022-12-01T03:42:12.677Z,102457.88
2022-12-01T03:44:47.601Z,102455.97
2022-12-01T03:47:20.729Z,102461.81
2022-12-01T03:49:51.881Z,102458.38
2022-12-01T03:52:45.572Z,102456.91
2022-12-01T03:55:12.419Z,102463.94
2022-12-01T03:58:01.507Z,102457.56
2022-12-01T04:00:31.151Z,102457.88
2022-12-01T04:03:03.219Z,102459.97
2022-12-01T04:05:32.738Z,102458.69
2022-12-01T04:08:00.158Z,102460.63
2022-12-01T04:10:27.195Z,102472.72
2022-12-01T04:12:59.082Z,102463.09
2022-12-01T04:15:27.259Z,102459.38
2022-12-01T04:17:54.852Z,102471.06
2022-12-01T04:20:22.062Z,102467.66
2022-12-01T04:22:48.969Z,102471.91
2022-12-01T04:25:16.078Z,102475.03
2022-12-01T04:27:42.928Z,102471.91
2022-12-01T04:30:10.971Z,102475.19
2022-12-01T04:32:42.114Z,102471.25
2022-12-01T04:35:12.037Z,102477.63
2022-12-01T04:37:39.905Z,102472.25
2022-12-01T04:40:08.017Z,102474.50
2022-12-01T04:42:34.869Z,102464.53
2022-12-01T04:45:01.917Z,102460.63
2022-12-01T04:47:28.743Z,102459.31
2022-12-01T04:49:55.644Z,102465.03
2022-12-01T04:52:22.479Z,102462.63
2022-12-01T04:54:49.513Z,102455.59
2022-12-01T04:57:16.570Z,102459.38
2022-12-01T04:59:43.513Z,102458.22
2022-12-01T05:02:10.448Z,102453.97
2022-12-01T05:04:41.238Z,102465.03
2022-12-01T05:07:08.482Z,102464.41
2022-12-01T05:09:35.634Z,102467.81
2022-12-01T05:12:02.673Z,102460.19
2022-12-01T05:14:29.774Z,102461.81
2022-12-01T05:16:58.059Z,102473.03
2022-12-01T05:19:43.998Z,102464.41
2022-12-01T05:22:10.845Z,102466.91
2022-12-01T05:24:37.668Z,102473.75
2022-12-01T05:27:04.593Z,102474.06
2022-12-01T05:29:32.950Z,102470.31
2022-12-01T05:32:00.138Z,102483.69
2022-12-01T05:34:27.287Z,102486.97
2022-12-01T05:36:54.137Z,102475.88
2022-12-01T05:39:20.972Z,102473.41
2022-12-01T05:41:47.814Z,102475.53
2022-12-01T05:44:14.655Z,102466.09
2022-12-01T05:46:41.669Z,102478.78
2022-12-01T05:49:08.529Z,102473.41
2022-12-01T05:51:35.543Z,102476.66
2022-12-01T05:54:02.717Z,102483.38
2022-12-01T05:56:29.608Z,102476.88
2022-12-01T05:58:56.607Z,102475.88
2022-12-01T06:01:23.672Z,102482.75
2022-12-01T06:03:52.212Z,102481.75
2022-12-01T06:06:19.634Z,102479.94
2022-12-01T06:08:46.473Z,102479.13
2022-12-01T06:11:13.364Z,102481.38
2022-12-01T06:13:40.227Z,102481.75
2022-12-01T06:16:07.450Z,102482.84
2022-12-01T06:18:37.343Z,102477.34
2022-12-01T06:21:06.313Z,102476.53
2022-12-01T06:23:33.720Z,102484.34
2022-12-01T06:26:00.576Z,102483.69
2022-12-01T06:28:27.834Z,102480.94
2022-12-01T06:31:01.041Z,102486.16
2022-12-01T06:33:29.707Z,102486.97
2022-12-01T06:36:06.051Z,102485.34
2022-12-01T06:38:34.839Z,102484.97
2022-12-01T06:41:02.525Z,102488.22
2022-12-01T06:43:29.708Z,102490.56
2022-12-01T06:46:01.540Z,102490.19
2022-12-01T06:48:30.682Z,102493.00
2022-12-01T06:50:59.434Z,102495.06
2022-12-01T06:53:28.307Z,102496.41
2022-12-01T06:56:00.330Z,102497.03
2022-12-01T06:58:27.567Z,102503.41
2022-12-01T07:00:54.738Z,102504.53
2022-12-01T07:03:21.877Z,102505.50
2022-12-01T07:06:00.406Z,102498.81
2022-12-01T07:08:31.648Z,102506.03
2022-12-01T07:11:05.393Z,102509.16
2022-12-01T07:13:33.937Z,102505.72
2022-12-01T07:16:03.140Z,102502.94
2022-12-01T07:18:31.946Z,102511.75
2022-12-01T07:21:03.851Z,102510.47
2022-12-01T07:23:31.458Z,102502.94
2022-12-01T07:26:07.572Z,102517.94
2022-12-01T07:28:34.410Z,102521.56
2022-12-01T07:31:06.771Z,102522.81
2022-12-01T07:33:34.153Z,102519.28
2022-12-01T07:36:01.046Z,102525.59
2022-12-01T07:38:29.779Z,102526.47
2022-12-01T07:41:02.773Z,102530.50
2022-12-01T07:43:31.524Z,102524.16
2022-12-01T07:46:12.852Z,102531.97
2022-12-01T07:48:42.204Z,102527.72
2022-12-01T07:51:13.021Z,102530.19
2022-12-01T07:53:40.031Z,102534.72
2022-12-01T07:56:08.910Z,102529.19
2022-12-01T07:58:37.052Z,102531.28
2022-12-01T08:01:08.485Z,102531.63
2022-12-01T08:03:35.857Z,102534.03
2022-12-01T08:06:03.643Z,102535.69
2022-12-01T08:08:34.038Z,102531.44
2022-12-01T08:11:06.445Z,102526.19
2022-12-01T08:13:34.054Z,102525.31
2022-12-01T08:16:04.994Z,102537.44
2022-12-01T08:18:38.376Z,102536.75
2022-12-01T08:21:08.169Z,102540.53
2022-12-01T08:23:35.213Z,102538.88
2022-12-01T08:26:07.982Z,102537.75
2022-12-01T08:28:36.745Z,102538.66
2022-12-01T08:31:12.964Z,102551.06
2022-12-01T08:33:39.932Z,102540.63
2022-12-01T08:36:07.443Z,102547.47
2022-12-01T08:38:34.667Z,102550.31
2022-12-01T08:41:03.593Z,102551.38
2022-12-01T08:46:17.785Z,102548.63
2022-12-01T08:48:44.720Z,102547.09
2022-12-01T08:51:17.507Z,102552.31
2022-12-01T08:53:49.774Z,102555.41
2022-12-01T08:56:26.189Z,102551.38
2022-12-01T08:58:54.904Z,102558.81
2022-12-01T09:01:22.782Z,102555.13
2022-12-01T09:04:04.867Z,102553.97
2022-12-01T09:06:42.957Z,102561.50
2022-12-01T09:09:13.308Z,102552.09
2022-12-01T09:11:40.775Z,102557.53
2022-12-01T09:14:07.626Z,102549.09
2022-12-01T09:16:34.628Z,102550.59
2022-12-01T09:19:01.972Z,102556.50
2022-12-01T09:21:32.389Z,102552.09
2022-12-01T09:26:47.561Z,102552.00
2022-12-01T09:29:17.453Z,102555.00
2022-12-01T09:31:44.779Z,102562.66
2022-12-01T09:34:14.969Z,102560.13
2022-12-01T09:36:42.062Z,102563.72
2022-12-01T09:39:13.695Z,102561.09
2022-12-01T09:41:56.749Z,102564.03
2022-12-01T09:44:55.742Z,102564.16
2022-12-01T09:47:28.819Z,102562.03
2022-12-01T09:49:58.536Z,102558.44
2022-12-01T09:52:28.926Z,102566.22
2022-12-01T09:55:00.184Z,102562.78
2022-12-01T09:57:36.738Z,102558.53
2022-12-01T10:00:17.023Z,102558.72
2022-12-01T10:03:10.771Z,102553.97
2022-12-01T10:06:25.916Z,102554.00
2022-12-01T10:09:10.663Z,102551.38
2022-12-01T10:11:42.209Z,102554.19
2022-12-01T10:14:19.653Z,102546.53
2022-12-01T10:17:18.254Z,102547.88
2022-12-01T10:20:04.040Z,102551.38
2022-12-01T10:23:05.344Z,102543.53
2022-12-01T10:26:07.498Z,102542.13
2022-12-01T10:29:00.414Z,102534.81
2022-12-01T10:31:36.557Z,102535.72
2022-12-01T10:34:16.262Z,102536.09
2022-12-01T10:36:43.809Z,102536.91
2022-12-01T10:39:44.363Z,102531.69
2022-12-01T10:42:29.826Z,102527.91
2022-12-01T10:45:01.649Z,102536.81
2022-12-01T10:47:29.238Z,102529.59
2022-12-01T10:49:56.305Z,102532.84
2022-12-01T10:52:38.795Z,102528.66
2022-12-01T10:55:27.631Z,102525.16
2022-12-01T10:57:57.930Z,102526.09
2022-12-01T11:00:57.906Z,102520.44
2022-12-01T11:03:30.007Z,102529.56
2022-12-01T11:05:59.668Z,102532.25
2022-12-01T11:08:54.178Z,102531.50
2022-12-01T11:11:29.175Z,102528.88
2022-12-01T11:13:59.796Z,102533.41
2022-12-01T11:16:43.076Z,102530.59
2022-12-01T11:19:21.886Z,102524.03
2022-12-01T11:21:57.960Z,102516.41
2022-12-01T11:24:33.806Z,102526.56
2022-12-01T11:27:01.168Z,102520.81
2022-12-01T11:29:38.010Z,102521.00
2022-12-01T11:32:18.724Z,102516.41
2022-12-01T11:34:59.630Z,102518.81
2022-12-01T11:37:33.054Z,102519.44
2022-12-01T11:40:23.613Z,102513.81
2022-12-01T11:42:53.483Z,102512.41
2022-12-01T11:45:20.247Z,102506.06
2022-12-01T11:48:15.230Z,102512.28
2022-12-01T11:50:47.955Z,102513.09
2022-12-01T11:53:34.036Z,102501.47
2022-12-01T11:56:33.552Z,102500.00
2022-12-01T11:59:04.137Z,102503.16
2022-12-01T12:01:58.255Z,102503.63
2022-12-01T12:05:05.944Z,102505.34
2022-12-01T12:08:06.249Z,102505.16
2022-12-01T12:10:55.650Z,102500.84
2022-12-01T12:13:35.587Z,102494.44
2022-12-01T12:16:33.697Z,102491.34
2022-12-01T12:19:33.793Z,102494.63
2022-12-01T12:22:11.884Z,102503.03
2022-12-01T12:24:57.269Z,102502.59
2022-12-01T12:27:55.698Z,102499.59
2022-12-01T12:30:46.562Z,102488.31
2022-12-01T12:33:32.311Z,102487.22
2022-12-01T12:35:59.292Z,102489.44
2022-12-01T12:38:35.393Z,102481.19
2022-12-01T12:41:22.343Z,102489.25
2022-12-01T12:44:04.670Z,102478.22
2022-12-01T12:46:49.020Z,102476.94
2022-12-01T12:49:54.364Z,102470.38
2022-12-01T12:52:26.503Z,102475.69
2022-12-01T12:55:00.204Z,102475.03
2022-12-01T12:57:37.885Z,102469.94
2022-12-01T13:00:21.335Z,102474.81
2022-12-01T13:03:10.778Z,102465.16
2022-12-01T13:05:53.472Z,102470.56
2022-12-01T13:08:42.663Z,102468.56
2022-12-01T13:11:27.686Z,102465.91
2022-12-01T13:14:12.071Z,102457.97
2022-12-01T13:16:47.488Z,102466.81
2022-12-01T13:19:32.204Z,102457.81
2022-12-01T13:22:01.804Z,102457.06
2022-12-01T13:24:31.192Z,102459.94
2022-12-01T13:27:05.697Z,102464.72
2022-12-01T13:29:44.027Z,102449.50
2022-12-01T13:32:37.231Z,102463.59
2022-12-01T13:35:22.306Z,102456.84
2022-12-01T13:37:52.750Z,102449.38
2022-12-01T13:40:27.147Z,102441.53
2022-12-01T13:43:10.236Z,102452.16
2022-12-01T13:45:41.163Z,102438.81
2022-12-01T13:48:49.937Z,102443.19
2022-12-01T13:51:16.813Z,102440.38
2022-12-01T13:54:16.753Z,102443.28
2022-12-01T13:57:01.414Z,102442.63
2022-12-01T14:00:00.340Z,102441.19
2022-12-01T14:02:30.406Z,102439.69
2022-12-01T14:05:23.307Z,102437.34
2022-12-01T14:07:52.485Z,102445.72
2022-12-01T14:10:32.128Z,102439.88
2022-12-01T14:13:04.528Z,102446.22
2022-12-01T14:15:42.446Z,102442.28
2022-12-01T14:18:36.251Z,102436.25
2022-12-01T14:21:07.689Z,102448.66
2022-12-01T14:23:58.523Z,102446.22
2022-12-01T14:26:29.607Z,102441.72
2022-12-01T14:29:02.295Z,102445.31
2022-12-01T14:31:35.247Z,102446.94
2022-12-01T14:34:02.662Z,102444.69
2022-12-01T14:36:40.913Z,102454.44
2022-12-01T14:39:19.454Z,102451.53
2022-12-01T14:41:49.102Z,102451.44
2022-12-01T14:44:33.250Z,102460.69
2022-12-01T14:47:05.162Z,102454.03
2022-12-01T14:49:39.503Z,102459.06
2022-12-01T14:52:17.674Z,102448.63
2022-12-01T14:54:49.844Z,102446.84
2022-12-01T14:57:23.410Z,102449.63
2022-12-01T15:00:16.012Z,102451.16
2022-12-01T15:03:07.096Z,102450.34
2022-12-01T15:05:41.013Z,102446.84
2022-12-01T15:11:30.100Z,102451.78
2022-12-01T15:13:57.776Z,102454.38
2022-12-01T15:16:28.984Z,102442.91
2022-12-01T15:18:56.470Z,102456.00
2022-12-01T15:21:30.925Z,102449.06
2022-12-01T15:23:57.993Z,102448.16
2022-12-01T15:26:29.770Z,102451.47
2022-12-01T15:29:25.538Z,102446.44
2022-12-01T15:32:02.814Z,102450.38
2022-12-01T15:34:34.900Z,102451.03
2022-12-01T15:37:10.995Z,102447.44
2022-12-01T15:39:46.921Z,102450.56
2022-12-01T15:42:27.625Z,102454.59
2022-12-01T15:45:00.787Z,102453.16
2022-12-01T15:47:43.414Z,102465.41
2022-12-01T15:50:41.257Z,102468.72
2022-12-01T15:53:27.042Z,102475.19
2022-12-01T15:55:59.317Z,102487.94
2022-12-01T15:58:32.889Z,102486.47
2022-12-01T16:01:09.369Z,102490.56
2022-12-01T16:03:56.327Z,102476.88
2022-12-01T16:06:28.843Z,102471.31
2022-12-01T16:09:06.740Z,102470.03
2022-12-01T16:11:33.931Z,102460.78
2022-12-01T16:14:20.181Z,102466.13
2022-12-01T16:16:49.283Z,102457.50
2022-12-01T16:19:16.300Z,102458.31
2022-12-01T16:21:56.737Z,102461.59
2022-12-01T16:24:27.599Z,102464.81
2022-12-01T16:27:02.556Z,102456.38
2022-12-01T16:29:50.481Z,102455.66
2022-12-01T16:32:23.895Z,102450.97
2022-12-01T16:34:55.909Z,102447.38
2022-12-01T16:37:23.108Z,102437.47
2022-12-01T16:39:50.497Z,102440.25
2022-12-01T16:42:20.987Z,102425.22
2022-12-01T16:44:49.887Z,102431.53
2022-12-01T16:47:23.781Z,102439.06
2022-12-01T16:49:52.283Z,102438.41
2022-12-01T16:52:43.772Z,102431.53
2022-12-01T16:55:31.609Z,102443.97
2022-12-01T16:57:58.826Z,102441.97
2022-12-01T17:00:25.964Z,102441.34
2022-12-01T17:02:53.068Z,102450.50
2022-12-01T17:05:20.101Z,102454.38
2022-12-01T17:07:47.547Z,102449.97
2022-12-01T17:10:15.872Z,102460.41
2022-12-01T17:12:42.799Z,102455.38
2022-12-01T17:15:10.398Z,102459.94
2022-12-01T17:17:37.871Z,102463.66
2022-12-01T17:20:06.083Z,102466.63
2022-12-01T17:22:33.718Z,102470.38
2022-12-01T17:25:02.188Z,102470.53
2022-12-01T17:27:31.271Z,102476.56
2022-12-01T17:29:58.871Z,102476.94
2022-12-01T17:32:27.070Z,102485.09
2022-12-01T17:34:54.342Z,102484.75
2022-12-01T17:37:21.665Z,102477.91
2022-12-01T17:39:50.134Z,102483.28
2022-12-01T17:42:17.003Z,102485.56
2022-12-01T17:44:44.066Z,102481.50
2022-12-01T17:47:11.706Z,102481.16
2022-12-01T17:49:38.755Z,102484.75
2022-12-01T17:52:06.973Z,102478.88
2022-12-01T17:54:33.928Z,102482.78
2022-12-01T17:57:00.750Z,102486.69
2022-12-01T17:59:27.636Z,102478.56
2022-12-01T18:01:54.755Z,102476.94
2022-12-01T18:04:21.769Z,102477.56
2022-12-01T18:06:53.725Z,102486.38
2022-12-01T18:09:21.983Z,102483.75
2022-12-01T18:11:49.657Z,102481.78
2022-12-01T18:14:17.665Z,102479.34
2022-12-01T18:16:45.241Z,102477.22
2022-12-01T18:19:12.403Z,102480.47
2022-12-01T18:21:40.339Z,102484.91
2022-12-01T18:24:11.017Z,102481.44
2022-12-01T18:26:39.992Z,102488.47
2022-12-01T18:29:12.460Z,102489.78
2022-12-01T18:31:43.067Z,102490.78
2022-12-01T18:34:12.939Z,102479.88
2022-12-01T18:36:41.218Z,102477.91
2022-12-01T18:39:10.944Z,102472.84
2022-12-01T18:41:38.261Z,102476.63
2022-12-01T18:44:05.864Z,102470.63
2022-12-01T18:46:33.609Z,102472.22
2022-12-01T18:49:02.731Z,102474.22
2022-12-01T18:51:32.779Z,102468.34
2022-12-01T18:54:01.654Z,102468.00
2022-12-01T18:56:29.479Z,102471.13
2022-12-01T18:58:58.305Z,102462.81
2022-12-01T19:01:28.302Z,102468.84
2022-12-01T19:03:56.616Z,102465.72
2022-12-01T19:06:23.969Z,102452.88
2022-12-01T19:08:52.308Z,102455.00
2022-12-01T19:11:20.149Z,102451.94
2022-12-01T19:13:47.767Z,102451.16
2022-12-01T19:16:17.655Z,102450.31
2022-12-01T19:18:45.280Z,102443.16
2022-12-01T19:21:15.306Z,102439.56
2022-12-01T19:23:43.489Z,102444.13
2022-12-01T19:26:13.332Z,102443.47
2022-12-01T19:28:42.085Z,102450.47
2022-12-01T19:31:12.498Z,102452.91
2022-12-01T19:33:40.417Z,102453.91
2022-12-01T19:36:10.526Z,102447.69
2022-12-01T19:38:38.672Z,102454.72
2022-12-01T19:41:07.099Z,102452.66
2022-12-01T19:43:35.245Z,102459.13
2022-12-01T19:46:10.615Z,102467.44
2022-12-01T19:48:38.092Z,102460.28
2022-12-01T19:51:05.639Z,102455.41
2022-12-01T19:53:34.043Z,102452.47
2022-12-01T19:56:02.994Z,102447.88
2022-12-01T19:58:33.209Z,102451.78
2022-12-01T20:01:05.281Z,102455.19
2022-12-01T20:03:32.526Z,102453.22
2022-12-01T20:06:05.063Z,102449.66
2022-12-01T20:08:35.660Z,102450.97
2022-12-01T20:11:04.486Z,102447.19
2022-12-01T20:13:34.007Z,102446.75
2022-12-01T20:16:03.096Z,102458.31
2022-12-01T20:18:31.060Z,102458.28
2022-12-01T20:21:18.883Z,102453.56
2022-12-01T20:24:07.252Z,102454.06
2022-12-01T20:26:37.328Z,102456.22
2022-12-01T20:29:26.241Z,102453.59
2022-12-01T20:31:55.597Z,102461.41
2022-12-01T20:34:26.926Z,102458.00
2022-12-01T20:36:54.404Z,102452.50
2022-12-01T20:39:22.574Z,102453.97
2022-12-01T20:41:49.998Z,102457.00
2022-12-01T20:44:17.503Z,102462.09
2022-12-01T20:46:45.764Z,102462.28
2022-12-01T20:49:15.074Z,102454.13
2022-12-01T20:51:42.286Z,102456.09
2022-12-01T20:54:29.101Z,102462.75
2022-12-01T20:56:57.809Z,102454.28
2022-12-01T20:59:24.806Z,102454.34
2022-12-01T21:01:51.793Z,102460.38
2022-12-01T21:04:18.746Z,102450.69
2022-12-01T21:06:46.194Z,102445.84
2022-12-01T21:09:14.573Z,102447.53
2022-12-01T21:12:08.865Z,102446.53
2022-12-01T21:14:53.859Z,102444.56
2022-12-01T21:17:39.549Z,102446.84
2022-12-01T21:20:21.288Z,102445.06
2022-12-01T21:22:50.757Z,102457.47
2022-12-01T21:25:23.343Z,102452.25
2022-12-01T21:27:50.491Z,102446.56
2022-12-01T21:30:21.787Z,102449.16
2022-12-01T21:32:49.741Z,102450.31
2022-12-01T21:35:24.914Z,102439.72
2022-12-01T21:38:00.394Z,102438.41
2022-12-01T21:40:28.355Z,102438.44
2022-12-01T21:43:01.467Z,102434.22
2022-12-01T21:45:31.952Z,102429.06
2022-12-01T21:48:15.678Z,102417.97
2022-12-01T21:50:42.645Z,102424.31
2022-12-01T21:53:19.804Z,102426.28
2022-12-01T21:55:47.839Z,102423.84
2022-12-01T21:58:31.274Z,102423.19
2022-12-01T22:00:59.893Z,102421.25
2022-12-01T22:03:32.090Z,102408.78
2022-12-01T22:06:29.676Z,102410.28
2022-12-01T22:09:11.737Z,102403.25
2022-12-01T22:11:38.570Z,102399.00
2022-12-01T22:14:08.472Z,102396.47
2022-12-01T22:16:38.213Z,102399.53
2022-12-01T22:19:17.123Z,102403.78
2022-12-01T22:21:48.915Z,102408.19
2022-12-01T22:24:25.390Z,102409.00
2022-12-01T22:27:17.143Z,102415.69
2022-12-01T22:29:46.872Z,102405.44
2022-12-01T22:32:13.630Z,102426.25
2022-12-01T22:34:53.418Z,102419.09
2022-12-01T22:37:32.468Z,102418.28
2022-12-01T22:39:59.507Z,102420.44
2022-12-01T22:42:34.972Z,102413.75
2022-12-01T22:45:23.074Z,102399.94
2022-12-01T22:47:51.492Z,102398.31
2022-12-01T22:50:32.714Z,102390.50
2022-12-01T22:53:11.886Z,102394.09
2022-12-01T22:55:40.046Z,102398.19
2022-12-01T22:58:22.376Z,102401.91
2022-12-01T23:00:49.500Z,102407.41
2022-12-01T23:03:16.638Z,102399.97
2022-12-01T23:05:45.455Z,102414.28
2022-12-01T23:08:22.004Z,102408.59
2022-12-01T23:10:50.080Z,102409.59
2022-12-01T23:13:25.689Z,102409.75
2022-12-01T23:15:53.936Z,102416.91
2022-12-01T23:18:28.471Z,102411.41
2022-12-01T23:20:57.673Z,102419.03
2022-12-01T23:23:36.591Z,102405.22
2022-12-01T23:26:07.630Z,102410.75
2022-12-01T23:28:39.251Z,102408.97
2022-12-01T23:31:06.442Z,102408.34
2022-12-01T23:33:34.901Z,102397.59
2022-12-01T23:36:15.160Z,102402.47
2022-12-01T23:38:45.916Z,102410.44
2022-12-01T23:41:25.237Z,102405.25
2022-12-01T23:43:55.776Z,102397.13
2022-12-01T23:46:28.159Z,102401.50
2022-12-01T23:49:13.882Z,102402.63
2022-12-01T23:51:47.076Z,102390.47
2022-12-01T23:54:21.267Z,102383.97
2022-12-01T23:56:52.695Z,102387.38
2022-12-01T23:59:20.759Z,102383.13
